createdAt,value
2023-02-13T00:03:16.954Z,10.70
2023-02-13T00:08:19.744Z,8.90
2023-02-13T00:13:23.921Z,8.35
2023-02-13T00:18:26.968Z,15.88
2023-02-13T00:23:31.245Z,11.55
2023-02-13T00:28:35.693Z,9.98
2023-02-13T00:33:39.997Z,10.52
2023-02-13T00:38:43.330Z,9.75
2023-02-13T00:43:49.189Z,9.63
2023-02-13T00:48:51.975Z,9.98
2023-02-13T00:53:54.713Z,10.20
2023-02-13T00:58:58.961Z,9.10
2023-02-13T01:04:02.032Z,10.00
2023-02-13T01:09:05.584Z,10.55
2023-02-13T01:14:09.917Z,11.15
2023-02-13T01:19:12.640Z,11.48
2023-02-13T01:24:15.457Z,10.13
2023-02-13T01:29:19.589Z,11.38
2023-02-13T01:34:22.401Z,11.07
2023-02-13T01:39:25.097Z,12.57
2023-02-13T01:44:53.758Z,11.77
2023-02-13T01:50:05.107Z,12.00
2023-02-13T01:55:08.583Z,10.40
2023-02-13T02:00:15.746Z,11.88
2023-02-13T02:05:23.410Z,10.95
2023-02-13T02:10:26.402Z,11.15
2023-02-13T02:15:31.063Z,10.77
2023-02-13T02:21:03.043Z,10.73
2023-02-13T02:26:21.171Z,12.07
2023-02-13T02:32:00.547Z,13.63
2023-02-13T02:37:14.690Z,11.13
2023-02-13T02:42:31.112Z,11.52
2023-02-13T02:47:57.466Z,11.52
2023-02-13T02:53:09.193Z,12.23
2023-02-13T02:58:39.568Z,9.63
2023-02-13T03:04:00.188Z,15.15
2023-02-13T03:09:24.872Z,11.02
2023-02-13T03:14:28.673Z,11.52
2023-02-13T03:19:57.216Z,11.48
2023-02-13T03:25:09.767Z,12.55
2023-02-13T03:30:20.484Z,12.80
2023-02-13T03:35:48.512Z,10.65
2023-02-13T03:41:15.756Z,8.18
2023-02-13T03:46:19.431Z,9.50
2023-02-13T03:51:24.900Z,9.80
2023-02-13T03:56:48.237Z,8.45
2023-02-13T04:01:56.378Z,7.57
2023-02-13T04:07:01.329Z,7.05
2023-02-13T04:12:10.390Z,9.70
2023-02-13T04:17:17.248Z,6.60
2023-02-13T04:22:20.061Z,7.50
2023-02-13T04:27:26.749Z,7.40
2023-02-13T04:32:29.611Z,5.97
2023-02-13T04:37:32.462Z,7.10
2023-02-13T04:42:36.807Z,6.90
2023-02-13T04:47:39.502Z,5.60
2023-02-13T04:52:42.236Z,6.72
2023-02-13T04:57:46.348Z,4.88
2023-02-13T05:02:49.077Z,4.85
2023-02-13T05:07:51.782Z,5.63
2023-02-13T05:12:56.032Z,5.85
2023-02-13T05:17:58.841Z,6.20
2023-02-13T05:23:18.981Z,5.05
2023-02-13T05:28:40.541Z,4.65
2023-02-13T05:33:43.319Z,5.85
2023-02-13T05:38:46.011Z,4.43
2023-02-13T05:43:50.086Z,4.90
2023-02-13T05:48:53.004Z,4.15
2023-02-13T05:53:55.695Z,6.03
2023-02-13T05:58:59.780Z,5.10
2023-02-13T06:04:03.981Z,4.85
2023-02-13T06:09:06.967Z,6.57
2023-02-13T06:14:12.224Z,5.88
2023-02-13T06:19:14.992Z,6.37
2023-02-13T06:24:17.738Z,5.50
2023-02-13T06:29:22.010Z,5.50
2023-02-13T06:34:24.706Z,4.75
2023-02-13T06:39:27.411Z,5.35
2023-02-13T06:44:31.627Z,4.40
2023-02-13T06:49:34.340Z,6.40
2023-02-13T06:54:46.864Z,4.72
2023-02-13T06:59:51.615Z,5.68
2023-02-13T07:04:54.381Z,4.93
2023-02-13T07:09:57.118Z,5.63
2023-02-13T07:15:01.298Z,4.03
2023-02-13T07:20:05.475Z,6.38
2023-02-13T07:25:08.783Z,5.43
2023-02-13T07:30:14.266Z,4.88
2023-02-13T07:35:17.021Z,7.22
2023-02-13T07:40:20.053Z,4.72
2023-02-13T07:45:24.118Z,4.82
2023-02-13T07:50:28.875Z,4.50
2023-02-13T07:55:32.656Z,5.47
2023-02-13T08:00:36.816Z,5.13
2023-02-13T08:05:40.728Z,6.13
2023-02-13T08:11:00.853Z,5.07
2023-02-13T08:16:05.330Z,6.93
2023-02-13T08:21:08.092Z,6.43
2023-02-13T08:26:11.090Z,5.82
2023-02-13T08:31:15.180Z,4.70
2023-02-13T08:36:19.029Z,6.05
2023-02-13T08:41:22.121Z,8.82
2023-02-13T08:46:26.253Z,5.07
2023-02-13T08:51:29.046Z,7.28
2023-02-13T08:56:31.742Z,4.95
2023-02-13T09:01:35.863Z,5.55
2023-02-13T09:06:38.598Z,5.90
2023-02-13T09:11:41.401Z,5.47
2023-02-13T09:16:45.506Z,5.70
2023-02-13T09:21:48.313Z,5.68
2023-02-13T09:26:50.987Z,6.03
2023-02-13T09:31:55.156Z,6.88
2023-02-13T09:36:57.898Z,6.70
2023-02-13T09:42:01.763Z,9.32
2023-02-13T09:47:07.458Z,6.53
2023-02-13T09:52:10.624Z,9.20
2023-02-13T09:57:30.344Z,6.18
2023-02-13T10:03:05.300Z,5.97
2023-02-13T10:08:14.303Z,6.75
2023-02-13T10:13:26.141Z,5.90
2023-02-13T10:18:36.209Z,5.68
2023-02-13T10:23:43.681Z,4.82
2023-02-13T10:29:10.723Z,7.65
2023-02-13T10:34:17.307Z,7.22
2023-02-13T10:39:24.837Z,7.22
2023-02-13T10:44:39.777Z,8.60
2023-02-13T10:49:58.028Z,7.00
2023-02-13T10:55:28.443Z,7.25
2023-02-13T11:00:36.272Z,6.75
2023-02-13T11:05:41.423Z,6.30
2023-02-13T11:10:44.121Z,6.25
2023-02-13T11:16:02.270Z,7.72
2023-02-13T11:21:11.564Z,4.95
2023-02-13T11:26:16.808Z,6.05
2023-02-13T11:31:29.180Z,5.78
2023-02-13T11:36:34.804Z,7.35
2023-02-13T11:41:41.301Z,9.23
2023-02-13T11:46:47.589Z,7.80
2023-02-13T11:51:53.593Z,5.65
2023-02-13T11:57:06.235Z,5.03
2023-02-13T12:02:18.461Z,6.43
2023-02-13T12:07:24.922Z,5.85
2023-02-13T12:12:32.399Z,5.43
2023-02-13T12:17:36.026Z,8.48
2023-02-13T12:22:48.442Z,7.63
2023-02-13T12:28:01.063Z,6.15
2023-02-13T12:33:11.004Z,5.32
2023-02-13T12:38:25.133Z,4.57
2023-02-13T12:43:45.410Z,4.70
2023-02-13T12:48:53.927Z,4.18
2023-02-13T12:54:12.950Z,4.10
2023-02-13T12:59:21.490Z,3.25
2023-02-13T13:04:30.971Z,3.42
2023-02-13T13:09:52.312Z,3.30
2023-02-13T13:14:59.445Z,3.65
2023-02-13T13:20:09.622Z,4.05
2023-02-13T13:25:19.523Z,3.00
2023-02-13T13:30:25.146Z,3.97
2023-02-13T13:35:28.925Z,3.63
2023-02-13T13:40:40.756Z,4.35
2023-02-13T13:45:47.089Z,5.57
2023-02-13T13:50:50.268Z,3.92
2023-02-13T13:56:07.913Z,3.80
2023-02-13T14:01:29.267Z,3.78
2023-02-13T14:07:05.974Z,3.50
2023-02-13T14:12:45.982Z,4.05
2023-02-13T14:17:53.107Z,4.00
2023-02-13T14:22:55.939Z,3.53
2023-02-13T14:28:01.949Z,4.07
2023-02-13T14:33:06.953Z,3.40
2023-02-13T14:38:23.352Z,2.72
2023-02-13T14:43:49.152Z,3.47
2023-02-13T14:48:56.981Z,3.30
2023-02-13T14:54:05.024Z,4.57
2023-02-13T14:59:16.717Z,3.58
2023-02-13T15:04:24.786Z,3.53
2023-02-13T15:09:33.356Z,2.92
2023-02-13T15:14:38.422Z,3.35
2023-02-13T15:19:46.217Z,4.55
2023-02-13T15:24:50.885Z,4.93
2023-02-13T15:30:00.792Z,4.32
2023-02-13T15:35:03.716Z,3.38
2023-02-13T15:40:23.835Z,4.47
2023-02-13T15:45:30.144Z,5.65
2023-02-13T15:50:34.846Z,4.93
2023-02-13T15:55:38.464Z,6.85
2023-02-13T16:00:43.839Z,6.72
2023-02-13T16:05:47.115Z,6.72
2023-02-13T16:10:50.135Z,7.00
2023-02-13T16:15:54.378Z,6.82
2023-02-13T16:20:57.845Z,9.32
2023-02-13T16:26:02.515Z,6.13
2023-02-13T16:31:07.262Z,7.82
2023-02-13T16:36:19.931Z,5.95
2023-02-13T16:41:33.826Z,6.65
2023-02-13T16:46:39.528Z,6.68
2023-02-13T16:51:43.883Z,6.35
2023-02-13T16:56:48.891Z,6.95
2023-02-13T17:02:09.087Z,12.88
2023-02-13T17:07:16.783Z,11.45
2023-02-13T17:12:20.233Z,8.38
2023-02-13T17:17:24.565Z,6.38
2023-02-13T17:22:33.003Z,5.68
2023-02-13T17:27:36.364Z,6.22
2023-02-13T17:32:40.497Z,7.30
2023-02-13T17:37:44.774Z,7.80
2023-02-13T17:42:51.694Z,7.40
2023-02-13T17:47:57.698Z,7.85
2023-02-13T17:53:03.376Z,9.05
2023-02-13T17:58:06.128Z,6.05
2023-02-13T18:03:12.857Z,6.93
2023-02-13T18:08:15.650Z,6.28
2023-02-13T18:13:18.479Z,8.02
2023-02-13T18:18:22.634Z,7.78
2023-02-13T18:23:25.394Z,8.82
2023-02-13T18:28:29.889Z,9.13
2023-02-13T18:33:34.017Z,16.27
2023-02-13T18:38:36.799Z,16.02
2023-02-13T18:43:40.450Z,14.02
2023-02-13T18:48:44.597Z,8.70
2023-02-13T18:53:47.609Z,11.73
2023-02-13T18:58:50.725Z,10.45
2023-02-13T19:03:55.052Z,7.15
2023-02-13T19:08:58.370Z,6.65
2023-02-13T19:14:04.647Z,22.05
2023-02-13T19:19:09.088Z,8.95
2023-02-13T19:24:15.212Z,8.95
2023-02-13T19:29:18.180Z,7.78
2023-02-13T19:34:22.392Z,9.77
2023-02-13T19:39:25.100Z,8.95
2023-02-13T19:44:27.922Z,8.45
2023-02-13T19:49:32.046Z,9.25
2023-02-13T19:54:35.128Z,9.32
2023-02-13T19:59:37.940Z,8.43
2023-02-13T20:04:42.145Z,9.02
2023-02-13T20:09:44.951Z,9.23
2023-02-13T20:14:47.763Z,7.38
2023-02-13T20:19:52.404Z,8.98
2023-02-13T20:24:55.162Z,8.65
2023-02-13T20:30:06.403Z,10.70
2023-02-13T20:35:11.391Z,13.23
2023-02-13T20:40:14.722Z,12.05
2023-02-13T20:45:17.974Z,10.38
2023-02-13T20:50:22.200Z,12.48
2023-02-13T20:55:24.941Z,11.20
2023-02-13T21:00:27.817Z,10.48
2023-02-13T21:05:31.867Z,11.32
2023-02-13T21:10:34.738Z,9.10
2023-02-13T21:15:37.829Z,8.75
2023-02-13T21:20:42.192Z,9.30
2023-02-13T21:25:45.018Z,8.68
2023-02-13T21:30:47.861Z,10.13
2023-02-13T21:36:00.594Z,8.73
2023-02-13T21:41:05.961Z,9.33
2023-02-13T21:46:09.972Z,9.77
2023-02-13T21:51:15.762Z,9.77
2023-02-13T21:56:20.208Z,9.68
2023-02-13T22:01:26.786Z,11.13
2023-02-13T22:06:33.303Z,12.45
2023-02-13T22:11:36.542Z,14.68
2023-02-13T22:16:39.901Z,12.82
2023-02-13T22:21:44.424Z,13.70
2023-02-13T22:26:47.287Z,12.93
2023-02-13T22:31:50.300Z,11.70
2023-02-13T22:36:55.002Z,12.33
2023-02-13T22:41:57.815Z,13.48
2023-02-13T22:47:00.493Z,14.82
2023-02-13T22:52:04.652Z,14.97
2023-02-13T22:57:07.382Z,12.88
2023-02-13T23:02:10.117Z,14.45
2023-02-13T23:07:15.085Z,14.93
2023-02-13T23:12:35.495Z,8.90
2023-02-13T23:17:56.105Z,9.18
2023-02-13T23:23:00.223Z,12.13
2023-02-13T23:28:03.077Z,12.88
2023-02-13T23:33:05.852Z,14.77
2023-02-13T23:38:09.915Z,12.50
2023-02-13T23:43:12.894Z,12.60
2023-02-13T23:48:15.637Z,11.55
2023-02-13T23:53:19.739Z,12.33
2023-02-13T23:58:22.666Z,11.52
